Hytop, Alabama
Current Conditions -  °F | °C
As of 5:55 AM on Thursday 27 Nov 2014 (Local Time) from K4A6 Reporting Station
Overcast Overcast  
Wind Chill: 36°   Ceiling: 3700
Heat Index: 41°   Visibility: 10mi
Dew Point: 32°   Wind: 7mph
Humidity: 70%   Direction: 280°W
Pressure: 30.24"   Gusts: NA
Location:  34.7061°N, 86.0958°W
Report Text: K4A6 271155Z AUTO 28006KT 10SM SCT028 OVC037 05/00 A3024 RMK AO2
Loading
Personal Weather Stations






























Interactive Weather Map New forecast layout! Learn more

10-Day Weather Forecast

Advertisements
Track Severe Weather on mobile